地図

経路データ

SID SEASON NUMBER BASIN SUBBASIN NAME ISO_TIME NATURE LAT LON WMO_WIND WMO_PRES WMO_AGENCY TRACK_TYPE DIST2LAND LANDFALL IFLAG USA_AGENCY USA_ATCF_ID USA_LAT USA_LON USA_RECORD USA_STATUS USA_WIND USA_PRES USA_SSHS USA_R34_NE USA_R34_SE USA_R34_SW USA_R34_NW USA_R50_NE USA_R50_SE USA_R50_SW USA_R50_NW USA_R64_NE USA_R64_SE USA_R64_SW USA_R64_NW USA_POCI USA_ROCI USA_RMW USA_EYE TOKYO_LAT TOKYO_LON TOKYO_GRADE TOKYO_WIND TOKYO_PRES TOKYO_R50_DIR TOKYO_R50_LONG TOKYO_R50_SHORT TOKYO_R30_DIR TOKYO_R30_LONG TOKYO_R30_SHORT TOKYO_LAND CMA_LAT CMA_LON CMA_CAT CMA_WIND CMA_PRES HKO_LAT HKO_LON HKO_CAT HKO_WIND HKO_PRES NEWDELHI_LAT NEWDELHI_LON NEWDELHI_GRADE NEWDELHI_WIND NEWDELHI_PRES NEWDELHI_CI NEWDELHI_DP NEWDELHI_POCI REUNION_LAT REUNION_LON REUNION_TYPE REUNION_WIND REUNION_PRES REUNION_TNUM REUNION_CI REUNION_RMW REUNION_R34_NE REUNION_R34_SE REUNION_R34_SW REUNION_R34_NW REUNION_R50_NE REUNION_R50_SE REUNION_R50_SW REUNION_R50_NW REUNION_R64_NE REUNION_R64_SE REUNION_R64_SW REUNION_R64_NW BOM_LAT BOM_LON BOM_TYPE BOM_WIND BOM_PRES BOM_TNUM BOM_CI BOM_RMW BOM_R34_NE BOM_R34_SE BOM_R34_SW BOM_R34_NW BOM_R50_NE BOM_R50_SE BOM_R50_SW BOM_R50_NW BOM_R64_NE BOM_R64_SE BOM_R64_SW BOM_R64_NW BOM_ROCI BOM_POCI BOM_EYE BOM_POS_METHOD BOM_PRES_METHOD NADI_LAT NADI_LON NADI_CAT NADI_WIND NADI_PRES WELLINGTON_LAT WELLINGTON_LON WELLINGTON_WIND WELLINGTON_PRES DS824_LAT DS824_LON DS824_STAGE DS824_WIND DS824_PRES TD9636_LAT TD9636_LON TD9636_STAGE TD9636_WIND TD9636_PRES TD9635_LAT TD9635_LON TD9635_WIND TD9635_PRES TD9635_ROCI NEUMANN_LAT NEUMANN_LON NEUMANN_CLASS NEUMANN_WIND NEUMANN_PRES MLC_LAT MLC_LON MLC_CLASS MLC_WIND MLC_PRES USA_GUST BOM_GUST BOM_GUST_PER REUNION_GUST REUNION_GUST_PER USA_SEAHGT USA_SEARAD_NE USA_SEARAD_SE USA_SEARAD_SW USA_SEARAD_NW STORM_SPEED STORM_DIR
1964308N08096 1964 105 NI BB NOT_NAMED 1964-11-03 06:00:00 TS 7.50000 95.6000 main 213 212 O________O____ jtwc_io IO131964 7.50000 95.6000 -1 7.50000 95.6000 TC 6 300
1964308N08096 1964 105 NI BB NOT_NAMED 1964-11-03 09:00:00 TS 7.65750 95.3275 main 235 235 P________P____ IO131964 7.65750 95.3275 -1 7.65750 95.3275 TC 7 304
1964308N08096 1964 105 NI BB NOT_NAMED 1964-11-03 12:00:00 TS 7.90000 95.0000 main 258 258 O________O____ jtwc_io IO131964 7.90000 95.0000 -1 7.90000 95.0000 TC 25 10 311
1964308N08096 1964 105 NI BB NOT_NAMED 1964-11-03 15:00:00 TS 8.29112 94.5822 main 309 309 P________PO___ IO131964 8.29000 94.5799 -1 8.29000 94.5799 TC 25 8.30000 94.6000 1 13 315
1964308N08096 1964 105 NI BB NOT_NAMED 1964-11-03 18:00:00 TS 8.81612 94.0894 main 378 378 O________OP___ jtwc_io IO131964 8.80000 94.1000 -1 8.80000 94.1000 TC 25 8.88062 94.0470 1 15 318
1964308N08096 1964 105 NI BB NOT_NAMED 1964-11-03 21:00:00 TS 9.41330 93.5713 main 460 460 P________PP___ IO131964 9.40002 93.5926 -1 9.40002 93.5926 TC 25 9.44870 93.5143 1 16 320
1964308N08096 1964 105 NI BB NOT_NAMED 1964-11-04 00:00:00 TS 9.99745 93.0748 main 544 544 O________OP___ jtwc_io IO131964 10.0000 93.1000 -1 10.0000 93.1000 TC 25 9.99236 93.0245 1 14 320
1964308N08096 1964 105 NI BB NOT_NAMED 1964-11-04 03:00:00 TS 10.4866 92.6466 main 619 593 P________PO___ IO131964 10.4799 92.6698 -1 10.4799 92.6698 TC 25 10.5000 92.6000 1 12 320
1964308N08096 1964 105 NI BB NOT_NAMED 1964-11-04 06:00:00 TS 10.9204 92.2842 main 593 561 O________OP___ jtwc_io IO131964 10.9000 92.3000 -1 10.9000 92.3000 TC 25 10.9611 92.2524 1 11 323
1964308N08096 1964 105 NI BB NOT_NAMED 1964-11-04 09:00:00 TS 11.3429 91.9880 main 566 543 P________PP___ IO131964 11.3298 92.0073 -1 11.3298 92.0073 TC 25 11.3689 91.9492 1 10 323
1964308N08096 1964 105 NI BB NOT_NAMED 1964-11-04 12:00:00 TS 11.7058 91.6821 main 543 537 O________OP___ jtwc_io IO131964 11.7000 91.7000 -1 11.7000 91.7000 TC 25 11.7174 91.6464 1 9 313
1964308N08096 1964 105 NI BB NOT_NAMED 1964-11-04 15:00:00 TS 11.9917 91.2866 main 541 539 P________PO___ IO131964 11.9875 91.2800 -1 11.9875 91.2800 TC 25 12.0000 91.3000 1 10 301
1964308N08096 1964 105 NI BB NOT_NAMED 1964-11-04 18:00:00 TS 12.2103 90.8194 main 559 559 O________OP___ jtwc_io IO131964 12.2000 90.8000 -1 12.2000 90.8000 TC 25 12.2309 90.8582 1 10 293
1964308N08096 1964 105 NI BB NOT_NAMED 1964-11-04 21:00:00 TS 12.3858 90.3274 main 582 582 P________PP___ IO131964 12.3799 90.3075 -1 12.3799 90.3075 TC 25 12.3974 90.3672 1 10 287
1964308N08096 1964 105 NI BB NOT_NAMED 1964-11-05 00:00:00 TS 12.5051 89.8142 main 615 615 O________OP___ jtwc_io IO131964 12.5000 89.8000 -1 12.5000 89.8000 TC 25 12.5152 89.8426 1 10 281
1964308N08096 1964 105 NI BB NOT_NAMED 1964-11-05 03:00:00 TS 12.5765 89.3099 main 651 651 P________PO___ IO131964 12.5648 89.3149 -1 12.5648 89.3149 TC 30 12.6000 89.3000 1 10 277
1964308N08096 1964 105 NI BB NOT_NAMED 1964-11-05 06:00:00 TS 12.6262 88.7867 main 695 695 O________OP___ jtwc_io IO131964 12.6000 88.8000 -1 12.6000 88.8000 TC 35 12.6786 88.7600 1 11 275
1964308N08096 1964 105 NI BB NOT_NAMED 1964-11-05 09:00:00 TS 12.6766 88.2024 main 744 718 P________PP___ IO131964 12.6501 88.2000 -1 12.6501 88.2000 TC 35 12.7298 88.2071 1 11 275
1964308N08096 1964 105 NI BB NOT_NAMED 1964-11-05 12:00:00 TS 12.7220 87.6169 main 718 669 O________OP___ jtwc_io IO131964 12.7000 87.6000 -1 12.7000 87.6000 TC 35 12.7661 87.6507 1 11 275
1964308N08096 1964 105 NI BB NOT_NAMED 1964-11-05 15:00:00 TS 12.7665 87.0950 main 669 628 P________PO___ IO131964 12.7498 87.0925 -1 12.7498 87.0925 TC 35 12.8000 87.1000 3 10 276
1964308N08096 1964 105 NI BB NOT_NAMED 1964-11-05 18:00:00 TS 12.8193 86.5839 main 628 581 O________OP___ jtwc_io IO131964 12.8000 86.6000 -1 12.8000 86.6000 TC 35 12.8580 86.5517 3 10 276
1964308N08096 1964 105 NI BB NOT_NAMED 1964-11-05 21:00:00 TS 12.8716 86.0375 main 574 538 P________PP___ IO131964 12.8500 86.0500 -1 12.8500 86.0500 TC 35 12.9148 86.0127 3 11 276
1964308N08096 1964 105 NI BB NOT_NAMED 1964-11-06 00:00:00 TS 12.9214 85.4974 main 538 496 O________OP___ jtwc_io IO131964 12.9000 85.5000 -1 12.9000 85.5000 TC 35 12.9643 85.4923 3 10 276
1964308N08096 1964 105 NI BB NOT_NAMED 1964-11-06 03:00:00 TS 12.9716 84.9850 main 496 456 P________PO___ IO131964 12.9574 84.9775 -1 12.9574 84.9775 TC 35 13.0000 85.0000 3 10 275
1964308N08096 1964 105 NI BB NOT_NAMED 1964-11-06 06:00:00 TS 13.0060 84.5167 main 456 413 O________OP___ jtwc_io IO131964 13.0000 84.5000 -1 13.0000 84.5000 TC 35 13.0179 84.5502 3 9 273
1964308N08096 1964 105 NI BB NOT_NAMED 1964-11-06 09:00:00 TS 13.0122 84.0991 main 413 369 P________PP___ IO131964 13.0074 84.0850 -1 13.0074 84.0850 TC 50 13.0218 84.1274 3 8 270
1964308N08096 1964 105 NI BB NOT_NAMED 1964-11-06 12:00:00 TS 13.0050 83.7053 main 369 326 O________OP___ jtwc_io IO131964 13.0000 83.7000 -1 13.0000 83.7000 TC 65 13.0148 83.7159 3 8 269
1964308N08096 1964 105 NI BB NOT_NAMED 1964-11-06 15:00:00 TS 13.0049 83.3100 main 326 283 P________PO___ IO131964 13.0074 83.3150 -1 13.0074 83.3150 TC 65 13.0000 83.3000 4 8 269
1964308N08096 1964 105 NI BB NOT_NAMED 1964-11-06 18:00:00 TS 12.9968 82.8749 main 283 229 O________OP___ jtwc_io IO131964 13.0000 82.9000 -1 13.0000 82.9000 TC 65 12.9905 82.8247 4 9 267
1964308N08096 1964 105 NI BB NOT_NAMED 1964-11-06 21:00:00 TS 12.9626 82.3825 main 229 179 P________PP___ IO131964 12.9576 82.4000 -1 12.9576 82.4000 TC 65 12.9728 82.3476 4 10 265
1964308N08096 1964 105 NI BB NOT_NAMED 1964-11-07 00:00:00 TS 12.9146 81.8989 main 179 137 O________OP___ jtwc_io IO131964 12.9000 81.9000 -1 12.9000 81.9000 TC 65 12.9437 81.8966 4 9 264
1964308N08096 1964 105 NI BB NOT_NAMED 1964-11-07 03:00:00 TS 12.8666 81.4700 main 137 97 P________PO___ IO131964 12.8500 81.4550 -1 12.8500 81.4550 TC 50 12.9000 81.5000 4 8 262
1964308N08096 1964 105 NI BB NOT_NAMED 1964-11-07 06:00:00 TS 12.8103 81.1227 main 97 75 O________OP___ jtwc_io IO131964 12.8000 81.1000 -1 12.8000 81.1000 TC 35 12.8309 81.1681 4 6 259
1964308N08096 1964 105 NI BB NOT_NAMED 1964-11-07 09:00:00 TS 12.7498 80.8783 main 75 54 P________PP___ IO131964 12.7499 80.8700 -1 12.7499 80.8700 TC 35 12.7497 80.8949 4 4 254
1964308N08096 1964 105 NI BB NOT_NAMED 1964-11-07 12:00:00 TS 12.6895 80.6914 main 54 32 O________OP___ jtwc_io IO131964 12.7000 80.7000 -1 12.7000 80.7000 TC 35 12.6686 80.6743 4 4 253
1964308N08096 1964 105 NI BB NOT_NAMED 1964-11-07 15:00:00 TS 12.6333 80.4900 main 32 10 P________PO___ IO131964 12.6500 80.4850 -1 12.6500 80.4850 TC 30 12.6000 80.5000 2 4 253
1964308N08096 1964 105 NI BB NOT_NAMED 1964-11-07 18:00:00 TS 12.5813 80.3260 main 10 0 O________OP___ jtwc_io IO131964 12.6000 80.3000 -1 12.6000 80.3000 TC 25 12.5532 80.3650 2 3 251
1964308N08096 1964 105 NI BB NOT_NAMED 1964-11-07 21:00:00 TS 12.5393 80.2143 main 0 0 P________PP___ IO131964 12.5500 80.1800 -1 12.5500 80.1800 TC 25 12.5251 80.2601 2 2 248
1964308N08096 1964 105 NI BB NOT_NAMED 1964-11-08 00:00:00 TS 12.5047 80.1375 main 0 0 O________OP___ jtwc_io IO131964 12.5000 80.1000 -1 12.5000 80.1000 TC 25 12.5094 80.1750 2 1 251
1964308N08096 1964 105 NI BB NOT_NAMED 1964-11-08 03:00:00 NR 12.5000 80.1000 main 0 __________O___ IO131964 -1 TC 12.5000 80.1000 1 1 263

IBTrACS Databaseについて

本データベースは、米国NOAAが公開する1842年以降の世界の熱帯低気圧のベストトラックデータアーカイブInternational Best Track Archive for Climate Stewardship (IBTrACS)を、ウェブで閲覧しやすい形式に変換したものです。

最終更新日:2021-12-06